Time;durP1;ratioP1;P1;durP2;ratioP2;P2;SDS_P1;SDS_P2;PMS_P1;PMS_P2;Temp;Humidity;BMP_temperature;BMP_pressure;BME280_temperature;BME280_humidity;BME280_pressure;Samples;Min_cycle;Max_cycle;Signal;HPM_P1;HPM_P2
2022/01/28 00:01:01;;;;;;;20.37;11.80;;;;;;;3.94;64.19;99925.50;7765320;32;37866;-84
2022/01/28 00:05:21;;;;;;;25.67;12.65;;;;;;;3.96;63.90;99915.31;7765568;32;37383;-84
2022/01/28 00:09:37;;;;;;;18.73;11.30;;;;;;;3.81;64.40;99898.66;7765750;32;39264;-84
2022/01/28 00:14:01;;;;;;;21.15;11.98;;;;;;;3.69;64.89;99912.06;7765594;32;40540;-83
2022/01/28 00:18:54;;;;;;;19.20;11.48;;;;;;;4.23;62.81;99909.59;7765500;32;37918;-83
2022/01/28 00:37:08;;;;;;;20.33;12.18;;;;;;;3.80;63.86;99897.84;7765452;32;38136;-83
2022/01/28 00:41:24;;;;;;;23.70;12.93;;;;;;;3.20;66.55;99906.53;7765299;32;37054;-83
2022/01/28 00:45:40;;;;;;;22.85;12.40;;;;;;;3.00;67.69;99921.00;7765306;32;39264;-84
2022/01/28 00:49:56;;;;;;;22.42;12.52;;;;;;;3.29;66.36;99923.22;7765225;32;39826;-83
2022/01/28 00:54:12;;;;;;;27.45;14.25;;;;;;;3.60;65.24;99914.22;7765203;32;37863;-83
2022/01/28 00:58:29;;;;;;;27.20;14.60;;;;;;;3.04;66.62;99912.47;7765157;32;37238;-84
2022/01/28 01:02:45;;;;;;;27.20;13.18;;;;;;;2.86;67.49;99914.03;7765078;32;40023;-83
2022/01/28 01:07:01;;;;;;;27.62;14.48;;;;;;;3.19;66.50;99911.09;7764964;32;39768;-84
2022/01/28 01:11:20;;;;;;;25.45;13.75;;;;;;;3.13;66.58;99924.63;7765627;32;37908;-82
2022/01/28 01:15:41;;;;;;;28.30;13.52;;;;;;;3.17;66.61;99926.66;7764843;32;37208;-82
2022/01/28 01:20:31;;;;;;;24.30;12.93;;;;;;;3.30;65.56;99912.25;7764965;32;39312;-82
2022/01/28 01:24:53;;;;;;;31.25;14.05;;;;;;;3.36;65.08;99903.28;7764929;32;40864;-83
2022/01/28 01:29:12;;;;;;;26.30;14.18;;;;;;;3.51;64.78;99908.31;7763529;32;37940;-83
2022/01/28 01:33:32;;;;;;;23.12;12.95;;;;;;;3.65;64.25;99889.31;7764720;32;37889;-84
2022/01/28 01:37:48;;;;;;;22.98;12.75;;;;;;;3.65;64.42;99898.22;7764609;32;39329;-83
2022/01/28 01:42:24;;;;;;;22.58;11.98;;;;;;;3.83;63.33;99880.38;7764380;32;39944;-83
2022/01/28 01:56:12;;;;;;;19.27;11.00;;;;;;;3.60;63.54;99870.28;7732829;32;40084;-83
2022/01/28 02:00:28;;;;;;;18.30;10.55;;;;;;;3.31;64.98;99888.81;7764028;32;40028;-83
2022/01/28 02:04:44;;;;;;;18.70;10.50;;;;;;;3.44;64.60;99893.25;7763587;32;37872;-83
2022/01/28 02:09:01;;;;;;;18.98;10.57;;;;;;;3.59;63.83;99877.56;7763881;32;37921;-83
2022/01/28 02:13:17;;;;;;;16.30;10.05;;;;;;;3.51;64.15;99875.16;7763837;32;39977;-84
2022/01/28 02:17:33;;;;;;;16.80;8.98;;;;;;;3.30;63.99;99881.78;7763671;32;39997;-83
2022/01/28 02:21:51;;;;;;;14.38;8.35;;;;;;;3.67;63.16;99850.28;7762320;32;38754;-83
2022/01/28 02:26:12;;;;;;;18.35;9.57;;;;;;;3.82;62.46;99855.28;7766146;32;36776;-83
2022/01/28 02:30:28;;;;;;;16.05;9.13;;;;;;;3.91;62.05;99867.41;7766998;32;39269;-82
2022/01/28 02:34:44;;;;;;;16.58;9.43;;;;;;;2.90;64.98;99877.56;7766974;32;39843;-83
2022/01/28 02:39:01;;;;;;;15.00;7.68;;;;;;;3.35;63.74;99860.38;7766864;32;38569;-83
2022/01/28 02:47:39;;;;;;;13.55;8.05;;;;;;;3.52;63.80;99855.25;7767024;32;39226;-80
2022/01/28 02:51:57;;;;;;;12.15;6.85;;;;;;;3.97;61.57;99875.66;7766807;32;39869;-81
2022/01/28 02:56:24;;;;;;;13.13;7.75;;;;;;;3.92;61.47;99869.06;7766864;32;38020;-82
2022/01/28 03:00:41;;;;;;;13.05;7.78;;;;;;;4.01;61.43;99861.50;7766643;32;37744;-82
2022/01/28 03:05:29;;;;;;;13.88;6.80;;;;;;;3.53;62.57;99881.13;7766837;32;37064;-80
2022/01/28 03:10:14;;;;;;;12.35;7.15;;;;;;;3.67;62.65;99868.34;7766473;32;40810;-82
2022/01/28 03:14:48;;;;;;;9.80;6.57;;;;;;;3.87;61.38;99882.41;7766454;32;37861;-82
2022/01/28 03:19:18;;;;;;;10.13;5.78;;;;;;;3.86;61.91;99858.38;7766613;32;36980;-81
2022/01/28 03:23:37;;;;;;;10.75;6.85;;;;;;;3.48;63.05;99883.66;7766359;32;40033;-81
2022/01/28 03:27:56;;;;;;;11.45;6.45;;;;;;;3.34;64.24;99883.78;7766385;32;39721;-83
2022/01/28 03:32:12;;;;;;;9.98;6.28;;;;;;;3.68;62.98;99878.91;7766170;32;37802;-83
2022/01/28 03:36:28;;;;;;;9.25;6.18;;;;;;;3.95;61.97;99892.91;7765630;32;36950;-84
2022/01/28 03:40:46;;;;;;;10.30;6.10;;;;;;;4.18;61.23;99909.47;7766134;32;39977;-83
2022/01/28 03:45:04;;;;;;;10.75;6.07;;;;;;;3.87;61.11;99898.59;7764826;32;40046;-83
2022/01/28 03:49:20;;;;;;;8.55;5.80;;;;;;;4.58;59.43;99898.12;7765962;32;38434;-83
2022/01/28 03:53:36;;;;;;;8.95;5.62;;;;;;;4.35;59.69;99899.69;7766106;32;36965;-83
2022/01/28 03:57:52;;;;;;;9.38;5.87;;;;;;;4.31;59.21;99906.56;7766072;32;38902;-84
2022/01/28 04:02:10;;;;;;;9.65;5.93;;;;;;;4.49;59.04;99898.44;7765788;32;39998;-83
2022/01/28 04:15:50;;;;;;;9.00;5.68;;;;;;;4.18;59.48;99901.37;7767205;32;39261;-80
2022/01/28 04:20:07;;;;;;;10.02;6.03;;;;;;;4.05;59.64;99908.56;7767053;32;39991;-83
2022/01/28 04:24:23;;;;;;;9.10;5.70;;;;;;;4.09;59.75;99912.47;7765541;32;37509;-83
2022/01/28 04:28:39;;;;;;;9.18;5.65;;;;;;;4.49;57.99;99922.72;7765590;32;36652;-82
2022/01/28 04:32:56;;;;;;;10.10;5.55;;;;;;;4.25;58.87;99934.47;7765573;32;40038;-82
2022/01/28 04:37:32;;;;;;;9.00;5.85;;;;;;;4.10;59.33;99951.88;7765376;32;41655;-83
2022/01/28 04:50:41;;;;;;;8.98;5.95;;;;;;;4.13;58.90;99946.03;7765445;32;39289;-83
2022/01/28 04:55:32;;;;;;;7.90;5.37;;;;;;;3.64;60.27;99950.50;7765284;32;40829;-83
2022/01/28 05:27:06;;;;;;;6.50;4.10;;;;;;;4.21;59.23;99952.16;7764994;32;39148;-84
2022/01/28 05:31:23;;;;;;;4.73;3.73;;;;;;;3.72;60.79;99966.38;7764919;32;40025;-83
2022/01/28 05:35:39;;;;;;;6.97;4.00;;;;;;;3.89;60.69;99963.09;7764652;32;38539;-82
2022/01/28 05:39:55;;;;;;;6.35;3.97;;;;;;;4.18;59.92;99974.22;7764675;32;36943;-82
2022/01/28 05:44:11;;;;;;;5.40;4.40;;;;;;;4.52;58.61;99980.88;7764585;32;39415;-84
2022/01/28 05:48:27;;;;;;;3.67;3.17;;;;;;;4.45;58.92;99972.00;7764506;32;41192;-83
2022/01/28 05:52:44;;;;;;;6.12;4.37;;;;;;;4.51;58.83;99980.03;7764600;32;37614;-83
2022/01/28 05:57:00;;;;;;;5.70;3.72;;;;;;;4.24;58.81;99989.50;7763127;32;37629;-83
2022/01/28 06:01:17;;;;;;;6.07;3.83;;;;;;;4.55;58.37;99987.69;7763670;32;39383;-83
2022/01/28 06:05:34;;;;;;;4.65;3.72;;;;;;;4.39;58.84;99975.63;7762984;32;39706;-82
2022/01/28 06:09:50;;;;;;;3.70;3.12;;;;;;;4.73;58.31;99952.53;7763806;32;37758;-83
2022/01/28 06:14:06;;;;;;;5.25;3.72;;;;;;;4.44;59.00;99949.59;7763972;32;36996;-83
2022/01/28 06:18:23;;;;;;;6.85;4.28;;;;;;;4.09;60.30;99958.31;7763839;32;39315;-81
2022/01/28 06:22:43;;;;;;;5.90;4.15;;;;;;;4.33;59.68;99944.97;7763712;32;40030;-81
2022/01/28 06:26:59;;;;;;;5.35;3.80;;;;;;;3.92;60.55;99949.19;7763179;32;37625;-81
2022/01/28 06:31:16;;;;;;;6.68;3.53;;;;;;;4.46;59.35;99928.59;7764737;32;36978;-82
2022/01/28 06:35:36;;;;;;;6.03;3.90;;;;;;;4.01;60.88;99974.00;7764535;32;39515;-83
2022/01/28 06:39:52;;;;;;;6.25;4.05;;;;;;;4.36;59.21;99987.69;7763428;32;40914;-82
2022/01/28 06:44:10;;;;;;;7.35;3.53;;;;;;;4.38;58.72;100011.75;7763036;32;38695;-83
2022/01/28 06:48:27;;;;;;;3.67;3.00;;;;;;;4.38;58.37;100025.25;7763057;32;36851;-79
2022/01/28 06:52:44;;;;;;;3.60;3.10;;;;;;;4.66;57.37;100013.94;7763021;32;39332;-81
2022/01/28 06:57:00;;;;;;;5.80;3.55;;;;;;;4.99;55.72;100012.66;7761566;32;39969;-83
2022/01/28 07:01:16;;;;;;;3.30;3.00;;;;;;;4.72;55.92;100004.91;7762689;32;38578;-82
2022/01/28 07:05:33;;;;;;;5.03;3.33;;;;;;;4.25;56.12;100004.66;7762503;32;37748;-82
2022/01/28 07:09:49;;;;;;;4.15;3.03;;;;;;;4.77;54.88;99983.44;7762677;32;39212;-82
2022/01/28 07:14:06;;;;;;;6.68;3.45;;;;;;;4.37;55.65;99994.75;7766350;32;40750;-83
2022/01/28 07:18:24;;;;;;;3.85;3.33;;;;;;;4.74;55.13;99999.28;7766572;32;38655;-80
2022/01/28 07:22:40;;;;;;;4.30;3.03;;;;;;;4.32;56.61;100006.22;7766422;32;39130;-84
2022/01/28 07:26:57;;;;;;;4.62;3.25;;;;;;;4.39;57.26;100018.81;7766421;32;39322;-83
2022/01/28 07:31:15;;;;;;;5.37;3.35;;;;;;;4.33;57.11;100026.78;7766242;32;39963;-82
2022/01/28 07:35:32;;;;;;;5.65;3.35;;;;;;;4.40;56.25;100052.84;7766353;32;37639;-84
2022/01/28 07:39:49;;;;;;;4.47;3.28;;;;;;;4.57;55.63;100058.47;7766250;32;37610;-85
2022/01/28 07:44:06;;;;;;;7.28;4.05;;;;;;;4.91;54.39;100064.31;7766136;32;39023;-83
2022/01/28 07:48:22;;;;;;;4.78;3.30;;;;;;;4.98;54.40;100065.03;7766115;32;40868;-81
2022/01/28 07:52:39;;;;;;;4.35;3.00;;;;;;;5.24;52.62;100062.00;7766013;32;38659;-82
2022/01/28 07:56:55;;;;;;;3.60;3.10;;;;;;;5.64;51.20;100061.37;7766301;32;37814;-84
2022/01/28 08:01:11;;;;;;;6.47;3.47;;;;;;;5.28;51.91;100059.66;7765975;32;40138;-83
2022/01/28 08:05:27;;;;;;;4.03;2.78;;;;;;;5.16;51.50;100059.59;7765769;32;40454;-79
2022/01/28 08:09:43;;;;;;;5.15;3.30;;;;;;;5.45;52.96;100062.53;7765920;32;38471;-84
2022/01/28 08:14:00;;;;;;;4.20;3.05;;;;;;;5.06;51.12;100072.84;7765919;32;36712;-83
2022/01/28 08:18:16;;;;;;;2.72;2.45;;;;;;;5.02;51.33;100082.47;7765849;32;39319;-80
2022/01/28 08:22:32;;;;;;;4.70;3.03;;;;;;;5.71;49.84;100073.94;7765334;32;39999;-80
2022/01/28 08:26:48;;;;;;;3.85;2.70;;;;;;;5.14;50.48;100074.37;7765618;32;37823;-80
2022/01/28 08:31:04;;;;;;;2.92;2.55;;;;;;;5.17;50.20;100072.03;7765730;32;36987;-79
2022/01/28 08:35:28;;;;;;;3.42;2.40;;;;;;;5.26;49.86;100086.91;7765702;32;39282;-78
2022/01/28 08:39:44;;;;;;;6.05;3.10;;;;;;;6.09;47.37;100072.72;7765470;32;40155;-83
2022/01/28 08:44:00;;;;;;;3.78;2.20;;;;;;;6.24;46.15;100081.19;7765778;32;39472;-83
2022/01/28 08:48:16;;;;;;;5.10;2.72;;;;;;;6.00;46.60;100089.34;7765526;32;37048;-83
2022/01/28 08:52:33;;;;;;;3.97;2.45;;;;;;;5.64;46.64;100096.53;7766818;32;40090;-83
2022/01/28 08:56:49;;;;;;;3.90;2.67;;;;;;;6.10;45.20;100104.16;7766727;32;39822;-82
2022/01/28 09:01:24;;;;;;;2.75;2.20;;;;;;;6.23;44.50;100097.69;7767531;32;37978;-82
2022/01/28 09:05:40;;;;;;;5.32;2.37;;;;;;;6.38;43.90;100101.59;7765687;32;37238;-84
2022/01/28 09:10:06;;;;;;;5.85;2.53;;;;;;;6.48;44.70;100094.72;7765244;32;39185;-84
2022/01/28 09:14:23;;;;;;;4.53;2.10;;;;;;;6.40;43.85;100095.94;7764916;32;39941;-85
2022/01/28 09:18:39;;;;;;;2.20;2.00;;;;;;;6.45;43.50;100101.47;7753624;32;37770;-86
2022/01/28 09:22:56;;;;;;;3.33;2.37;;;;;;;6.89;42.25;100095.59;7765137;32;36766;-83
2022/01/28 09:27:12;;;;;;;3.03;2.30;;;;;;;6.84;42.38;100085.47;7765028;32;40070;-86
2022/01/28 09:31:28;;;;;;;3.97;2.17;;;;;;;6.33;42.64;100081.66;7764793;32;40763;-82
2022/01/28 09:35:45;;;;;;;2.53;2.00;;;;;;;6.25;42.76;100101.81;7763765;32;38761;-84
2022/01/28 09:40:05;;;;;;;2.10;1.90;;;;;;;6.11;42.93;100095.81;7764782;32;37688;-80
2022/01/28 09:44:21;;;;;;;5.85;2.75;;;;;;;6.33;42.84;100109.59;7764556;32;39313;-85
2022/01/28 09:48:38;;;;;;;2.12;1.83;;;;;;;6.37;42.10;100104.53;7751373;32;39675;-83
2022/01/28 09:52:55;;;;;;;2.83;2.00;;;;;;;6.38;41.95;100098.88;7737471;32;37874;-86
2022/01/28 09:57:12;;;;;;;3.22;2.20;;;;;;;6.73;41.42;100087.16;7735976;32;36976;-84
2022/01/28 10:01:28;;;;;;;3.08;2.10;;;;;;;6.75;40.56;100079.59;7732290;32;155737;-83
2022/01/28 10:05:50;;;;;;;4.72;2.03;;;;;;;6.90;40.98;100076.41;7736635;32;39968;-85
2022/01/28 10:10:08;;;;;;;4.45;1.90;;;;;;;7.14;40.39;100050.03;7737157;32;37904;-84
2022/01/28 10:14:27;;;;;;;5.57;2.05;;;;;;;6.90;40.40;100065.56;7735923;32;36957;-83
2022/01/28 10:18:48;;;;;;;11.00;2.28;;;;;;;6.82;40.96;100070.53;7737022;32;39333;-79
2022/01/28 10:23:06;;;;;;;2.55;2.00;;;;;;;7.10;40.66;100081.37;7735676;32;40063;-84
2022/01/28 10:27:23;;;;;;;2.87;1.90;;;;;;;7.05;40.46;100102.97;7736725;32;37859;-84
2022/01/28 10:31:51;;;;;;;5.10;2.20;;;;;;;6.97;40.75;100095.22;7736672;32;38322;-74
2022/01/28 10:36:08;;;;;;;3.00;1.65;;;;;;;6.88;40.50;100077.69;7736488;32;39313;-73
2022/01/28 10:40:24;;;;;;;2.90;2.00;;;;;;;6.76;39.76;100064.16;7736253;32;40032;-73
2022/01/28 10:44:52;;;;;;;2.03;1.80;;;;;;;6.73;40.43;100067.37;7736522;32;37885;-74
2022/01/28 10:49:08;;;;;;;2.00;1.80;;;;;;;7.08;39.27;100061.81;7739887;32;36903;-75
2022/01/28 10:53:27;;;;;;;5.15;2.10;;;;;;;7.31;39.15;100065.50;7739857;32;39527;-76
2022/01/28 10:57:55;;;;;;;6.20;2.12;;;;;;;7.21;38.83;100077.00;7739832;32;39105;-75
2022/01/28 11:02:12;;;;;;;2.58;1.80;;;;;;;7.20;38.73;100086.19;7738592;32;37836;-75
2022/01/28 11:06:29;;;;;;;4.47;1.80;;;;;;;6.99;39.30;100079.53;7739495;32;37785;-75
2022/01/28 11:10:46;;;;;;;4.28;2.20;;;;;;;7.20;38.79;100101.63;7739713;32;39795;-75
2022/01/28 11:15:02;;;;;;;4.40;2.12;;;;;;;6.81;39.56;100106.81;7739575;32;40765;-75
2022/01/28 11:19:22;;;;;;;2.25;2.05;;;;;;;6.99;39.44;100106.66;7739461;32;38600;-74
2022/01/28 11:24:15;;;;;;;3.50;2.35;;;;;;;6.97;39.81;100108.78;7738408;32;37692;-75
2022/01/28 11:28:55;;;;;;;3.55;2.10;;;;;;;6.83;40.45;100118.22;7738802;32;37307;-75
2022/01/28 11:33:11;;;;;;;7.97;2.12;;;;;;;6.27;41.83;100136.78;7739414;32;40196;-75
2022/01/28 11:37:30;;;;;;;2.53;2.20;;;;;;;6.26;42.46;100144.09;7739250;32;38499;-74
2022/01/28 11:42:05;;;;;;;3.70;1.98;;;;;;;7.08;40.82;100132.31;7739335;32;35785;-75
2022/01/28 11:46:30;;;;;;;6.55;2.12;;;;;;;6.71;41.80;100131.78;7739131;32;39244;-75
2022/01/28 11:50:52;;;;;;;2.20;1.90;;;;;;;6.95;41.41;100165.09;7739062;32;40818;-74
2022/01/28 11:55:20;;;;;;;4.18;2.60;;;;;;;6.63;42.16;100140.31;7750531;32;37878;-78
2022/01/28 11:59:36;;;;;;;6.05;2.70;;;;;;;6.53;42.69;100132.78;7751102;32;37730;-76
2022/01/28 12:04:24;;;;;;;4.43;2.15;;;;;;;6.68;42.26;100149.37;7752196;32;39264;-75
2022/01/28 12:08:41;;;;;;;3.33;2.20;;;;;;;7.15;41.42;100143.03;7738892;32;39924;-76
2022/01/28 12:17:33;;;;;;;6.07;2.33;;;;;;;6.31;43.50;100157.75;7750246;32;36994;-76
2022/01/28 12:22:09;;;;;;;3.62;2.40;;;;;;;6.56;43.09;100148.56;7746815;32;40024;-76
2022/01/28 12:26:25;;;;;;;3.08;2.08;;;;;;;6.35;44.08;100139.97;7739322;32;39754;-76
2022/01/28 12:31:00;;;;;;;5.25;2.40;;;;;;;6.74;43.22;100129.47;7745815;32;37987;-76
2022/01/28 12:35:18;;;;;;;2.70;2.22;;;;;;;6.91;42.97;100124.09;7738620;32;37133;-76
2022/01/28 12:39:51;;;;;;;4.28;2.45;;;;;;;7.04;42.59;100124.91;7737575;32;38356;-75
2022/01/28 12:44:08;;;;;;;4.82;2.40;;;;;;;6.67;43.83;100134.16;7738608;32;39868;-75
2022/01/28 12:48:24;;;;;;;4.43;2.25;;;;;;;6.81;43.29;100137.44;7738422;32;37923;-75
2022/01/28 12:52:40;;;;;;;4.68;2.55;;;;;;;6.62;43.63;100138.66;7737308;32;36927;-76
2022/01/28 12:56:56;;;;;;;4.20;2.28;;;;;;;7.32;41.94;100137.66;7738444;32;39937;-76
2022/01/28 13:01:14;;;;;;;4.37;2.20;;;;;;;7.17;42.44;100134.66;7738374;32;40081;-75
2022/01/28 13:05:35;;;;;;;9.52;2.87;;;;;;;7.21;42.11;100133.94;7738039;32;36934;-75
2022/01/28 13:09:51;;;;;;;3.30;2.03;;;;;;;7.00;41.97;100140.00;7737179;32;36612;-75
2022/01/28 13:14:08;;;;;;;3.42;2.22;;;;;;;6.84;42.21;100147.00;7738259;32;39894;-75
2022/01/28 13:18:24;;;;;;;5.55;2.15;;;;;;;6.62;42.83;100149.47;7738112;32;41056;-76
2022/01/28 13:22:40;;;;;;;5.20;2.00;;;;;;;6.58;42.90;100144.53;7737907;32;37972;-76
2022/01/28 13:27:06;;;;;;;2.55;2.20;;;;;;;6.92;42.05;100149.34;7737984;32;36896;-76
2022/01/28 13:31:25;;;;;;;8.15;2.10;;;;;;;6.80;42.49;100154.78;7738028;32;39254;-75
2022/01/28 13:35:41;;;;;;;4.15;2.25;;;;;;;7.32;41.42;100165.59;7737740;32;39888;-75
2022/01/28 13:39:58;;;;;;;4.18;2.22;;;;;;;6.99;42.14;100165.47;7737710;32;37863;-75
2022/01/28 13:44:27;;;;;;;5.85;2.85;;;;;;;6.98;42.15;100174.66;7737553;32;36961;-75
2022/01/28 13:48:47;;;;;;;2.53;2.03;;;;;;;7.08;42.40;100170.28;7737653;32;40538;-76
2022/01/28 13:57:38;;;;;;;4.80;2.28;;;;;;;7.05;42.42;100170.75;7737145;32;37957;-75
2022/01/28 14:01:56;;;;;;;5.05;2.08;;;;;;;6.67;43.45;100174.81;7736914;32;38549;-75
2022/01/28 14:06:18;;;;;;;2.97;1.98;;;;;;;7.27;42.40;100178.25;7737285;32;40120;-75
2022/01/28 14:10:41;;;;;;;3.55;2.25;;;;;;;6.68;43.66;100183.78;7737248;32;38204;-75
2022/01/28 14:15:09;;;;;;;4.82;2.50;;;;;;;6.64;43.81;100191.56;7735783;32;38676;-75
2022/01/28 14:19:27;;;;;;;3.85;2.33;;;;;;;6.41;43.97;100203.19;7737272;32;36685;-75
2022/01/28 14:23:44;;;;;;;5.30;2.50;;;;;;;6.34;44.58;100213.31;7740065;32;40371;-75
2022/01/28 14:32:36;;;;;;;6.50;2.25;;;;;;;6.65;43.85;100236.53;7723175;32;37837;-74
2022/01/28 14:36:52;;;;;;;3.65;2.45;;;;;;;6.32;44.26;100243.31;7739785;32;36918;-75
2022/01/28 14:41:10;;;;;;;3.67;2.67;;;;;;;6.54;44.03;100240.06;7739790;32;39150;-75
2022/01/28 14:45:26;;;;;;;2.15;1.95;;;;;;;6.76;43.92;100238.44;7739629;32;40741;-75
2022/01/28 14:49:42;;;;;;;4.37;2.10;;;;;;;6.60;44.01;100241.81;7739702;32;37937;-75
2022/01/28 14:53:59;;;;;;;9.98;3.03;;;;;;;6.58;44.19;100236.66;7739869;32;37020;-75
2022/01/28 14:58:15;;;;;;;4.85;2.30;;;;;;;6.48;44.45;100235.56;7716467;32;39948;-75
2022/01/28 15:02:31;;;;;;;4.85;2.20;;;;;;;6.27;45.12;100253.22;7739006;32;39990;-75
2022/01/28 15:06:55;;;;;;;5.90;2.75;;;;;;;6.19;45.11;100267.87;7737383;32;37540;-74
2022/01/28 15:11:19;;;;;;;4.10;2.12;;;;;;;5.94;45.31;100263.44;7738955;32;36727;-74
2022/01/28 15:15:39;;;;;;;2.65;2.15;;;;;;;6.48;44.54;100260.78;7739761;32;39076;-74
2022/01/28 15:19:58;;;;;;;4.00;2.25;;;;;;;6.42;44.68;100275.25;7738584;32;40804;-74
2022/01/28 15:24:14;;;;;;;3.83;2.45;;;;;;;6.59;44.32;100275.41;7739459;32;37794;-75
2022/01/28 15:28:37;;;;;;;4.50;2.50;;;;;;;6.19;45.08;100292.25;7738657;32;36950;-75
2022/01/28 15:37:29;;;;;;;4.95;2.33;;;;;;;6.26;45.22;100308.41;7739113;32;39920;-75
2022/01/28 15:41:45;;;;;;;3.33;2.40;;;;;;;5.95;46.09;100311.09;7738624;32;37829;-75
2022/01/28 15:46:02;;;;;;;3.37;2.28;;;;;;;6.06;45.93;100311.41;7739050;32;37685;-74
2022/01/28 15:50:19;;;;;;;4.00;2.45;;;;;;;6.36;45.16;100314.94;7738600;32;40080;-75
2022/01/28 15:54:36;;;;;;;3.85;2.70;;;;;;;6.66;44.47;100307.81;7739109;32;40666;-74
2022/01/28 15:58:53;;;;;;;5.20;2.87;;;;;;;6.24;44.97;100311.34;7730255;32;38782;-74
2022/01/28 16:03:09;;;;;;;2.87;2.40;;;;;;;6.43;44.82;100324.84;7738715;32;37831;-74
2022/01/28 16:07:25;;;;;;;6.87;2.83;;;;;;;6.37;45.07;100327.41;7738902;32;39793;-75
2022/01/28 16:17:10;;;;;;;3.00;2.50;;;;;;;6.62;44.68;100334.53;7737481;32;38010;-75
2022/01/28 16:20:37;;;;;;;5.65;2.80;;;;;;;6.28;45.77;100344.19;7737971;32;36928;-74
2022/01/28 16:24:53;;;;;;;7.32;3.30;;;;;;;6.33;45.50;100352.47;7738306;32;40023;-74
2022/01/28 16:29:09;;;;;;;10.68;2.90;;;;;;;6.45;45.50;100344.38;7738522;32;39909;-75
2022/01/28 16:33:25;;;;;;;7.53;2.75;;;;;;;5.97;46.33;100344.19;7738004;32;37616;-73
2022/01/28 16:37:41;;;;;;;4.70;2.72;;;;;;;6.18;46.07;100358.31;7737993;32;36829;-75
2022/01/28 16:42:01;;;;;;;6.07;2.70;;;;;;;6.22;46.03;100354.06;7737734;32;38951;-75
2022/01/28 16:46:20;;;;;;;12.25;2.97;;;;;;;5.88;47.14;100361.78;7737863;32;39953;-75
2022/01/28 16:50:38;;;;;;;8.70;2.97;;;;;;;5.70;47.65;100368.00;7737250;32;37869;-75
2022/01/28 16:54:54;;;;;;;5.60;2.70;;;;;;;5.67;47.99;100383.88;7738483;32;37715;-75
2022/01/28 16:59:10;;;;;;;8.48;3.10;;;;;;;5.84;47.30;100374.91;7738394;32;39341;-75
2022/01/28 17:03:27;;;;;;;6.43;2.90;;;;;;;6.05;47.00;100385.53;7738083;32;40973;-75
2022/01/28 17:07:43;;;;;;;9.07;3.30;;;;;;;6.00;47.24;100391.62;7738223;32;38593;-75
2022/01/28 17:12:28;;;;;;;5.03;2.67;;;;;;;5.97;47.29;100392.91;7738325;32;37520;-74
2022/01/28 17:16:41;;;;;;;5.00;2.85;;;;;;;5.93;47.56;100402.53;7738085;32;39336;-75
2022/01/28 17:21:03;;;;;;;5.22;2.87;;;;;;;5.69;48.19;100400.69;7737885;32;40042;-79
2022/01/28 17:25:19;;;;;;;5.70;3.20;;;;;;;6.18;54.84;100398.91;7736690;32;37793;-75
2022/01/28 17:29:36;;;;;;;4.12;3.00;;;;;;;6.41;48.33;100408.22;7737863;32;36833;-75
2022/01/28 17:33:53;;;;;;;8.65;3.70;;;;;;;6.53;45.96;100406.37;7737675;32;41098;-75
2022/01/28 17:38:10;;;;;;;5.75;2.70;;;;;;;6.11;47.02;100398.19;7737617;32;39717;-75
2022/01/28 17:42:26;;;;;;;6.22;2.85;;;;;;;5.77;47.84;100400.41;7737578;32;38115;-75
2022/01/28 17:46:59;;;;;;;6.10;2.70;;;;;;;5.88;47.76;100399.66;7737378;32;36947;-75
2022/01/28 17:51:15;;;;;;;8.40;3.45;;;;;;;5.38;49.26;100392.50;7737409;32;39999;-75
2022/01/28 17:55:32;;;;;;;6.28;2.70;;;;;;;5.36;48.93;100375.63;7736498;32;39618;-74
2022/01/28 17:59:49;;;;;;;9.73;3.03;;;;;;;5.31;49.33;100404.41;7737192;32;38020;-75
2022/01/28 18:04:06;;;;;;;9.10;3.20;;;;;;;5.24;49.38;100408.00;7735719;32;37003;-75
2022/01/28 18:08:22;;;;;;;5.00;3.03;;;;;;;4.95;50.40;100405.94;7737037;32;39172;-75
2022/01/28 18:12:38;;;;;;;7.50;3.65;;;;;;;5.10;49.93;100405.63;7737001;32;40095;-75
2022/01/28 18:16:54;;;;;;;94.82;33.75;;;;;;;4.84;50.65;100397.50;7735509;32;38694;-75
2022/01/28 18:21:11;;;;;;;14.55;6.97;;;;;;;4.87;50.66;100394.38;7736918;32;37379;-75
2022/01/28 18:25:28;;;;;;;4.90;3.45;;;;;;;4.95;50.79;100405.94;7735545;32;37280;-74
2022/01/28 18:29:44;;;;;;;6.20;3.12;;;;;;;4.95;50.65;100405.94;7736533;32;41140;-74
2022/01/28 18:34:02;;;;;;;5.68;3.00;;;;;;;4.93;50.65;100403.47;7736505;32;37711;-74
2022/01/28 18:38:21;;;;;;;5.40;3.20;;;;;;;4.75;51.40;100423.13;7736305;32;36970;-76
2022/01/28 18:51:11;;;;;;;5.50;3.20;;;;;;;4.38;52.64;100433.75;7736038;32;37673;-76
2022/01/28 18:55:31;;;;;;;6.22;3.37;;;;;;;4.70;51.44;100417.56;7734771;32;36711;-76
2022/01/28 18:59:47;;;;;;;10.40;3.95;;;;;;;4.60;51.73;100419.91;7736078;32;39368;-76
2022/01/28 19:04:03;;;;;;;6.97;3.60;;;;;;;4.26;52.75;100432.72;7735601;32;40192;-75
2022/01/28 19:08:19;;;;;;;9.70;3.72;;;;;;;4.32;52.71;100413.81;7738738;32;38636;-76
2022/01/28 19:12:37;;;;;;;10.65;3.87;;;;;;;3.85;53.99;100420.44;7739724;32;37654;-76
2022/01/28 19:16:53;;;;;;;4.78;3.12;;;;;;;3.94;53.67;100433.47;7739671;32;38397;-76
2022/01/28 19:21:10;;;;;;;7.85;3.75;;;;;;;3.99;53.52;100432.84;7739261;32;39974;-76
2022/01/28 19:25:26;;;;;;;7.40;3.55;;;;;;;3.85;54.18;100442.03;7738260;32;37849;-76
2022/01/28 19:29:43;;;;;;;9.52;3.75;;;;;;;4.13;53.46;100442.53;7738722;32;36972;-75
2022/01/28 19:34:02;;;;;;;8.05;4.12;;;;;;;4.13;53.54;100456.03;7739399;32;40255;-75
2022/01/28 19:38:18;;;;;;;8.13;3.90;;;;;;;4.23;53.21;100474.50;7738956;32;40794;-75
2022/01/28 19:42:35;;;;;;;6.62;3.95;;;;;;;4.48;52.43;100473.75;7730723;32;37868;-75
2022/01/28 19:46:51;;;;;;;9.52;4.68;;;;;;;4.11;53.29;100487.81;7737031;32;37688;-75
2022/01/28 19:51:09;;;;;;;11.65;4.05;;;;;;;4.42;52.53;100483.56;7735357;32;39228;-75
2022/01/28 19:55:25;;;;;;;13.57;4.87;;;;;;;3.91;53.80;100497.81;7735166;32;40143;-76
2022/01/28 19:59:41;;;;;;;8.05;4.45;;;;;;;4.19;53.16;100505.66;7736854;32;37862;-76
2022/01/28 20:04:01;;;;;;;12.52;4.05;;;;;;;4.13;53.14;100504.63;7736731;32;37812;-76
2022/01/28 20:08:18;;;;;;;11.02;4.62;;;;;;;4.28;52.96;100506.25;7736959;32;40046;-76
2022/01/28 20:12:34;;;;;;;10.77;4.57;;;;;;;3.97;54.01;100501.53;7736887;32;39530;-76
2022/01/28 20:16:50;;;;;;;9.25;4.32;;;;;;;4.32;52.98;100515.56;7736414;32;37914;-74
2022/01/28 20:21:08;;;;;;;16.42;4.82;;;;;;;4.20;53.12;100525.37;7734516;32;40019;-75
2022/01/28 20:25:24;;;;;;;7.65;3.75;;;;;;;4.37;52.78;100525.75;7736471;32;40220;-77
2022/01/28 20:29:40;;;;;;;14.25;4.40;;;;;;;4.28;52.81;100527.84;7736376;32;40077;-76
2022/01/28 20:33:57;;;;;;;8.32;4.00;;;;;;;4.20;53.16;100541.56;7736316;32;38048;-76
2022/01/28 20:38:13;;;;;;;10.38;3.87;;;;;;;4.23;53.33;100549.25;7736368;32;38079;-77
2022/01/28 20:42:29;;;;;;;10.27;4.10;;;;;;;4.13;53.35;100555.87;7735162;32;39875;-77
2022/01/28 20:46:45;;;;;;;12.57;4.72;;;;;;;4.11;53.72;100551.75;7734343;32;38852;-76
2022/01/28 20:51:02;;;;;;;11.60;4.75;;;;;;;4.44;52.68;100557.06;7736051;32;38462;-76
2022/01/28 20:55:18;;;;;;;10.00;4.20;;;;;;;4.14;53.35;100559.44;7736253;32;37698;-74
2022/01/28 20:59:34;;;;;;;9.35;4.28;;;;;;;4.45;52.45;100569.53;7736175;32;39982;-76
2022/01/28 21:03:50;;;;;;;12.05;4.50;;;;;;;4.33;52.90;100565.84;7736038;32;40776;-76
2022/01/28 21:08:08;;;;;;;9.82;3.80;;;;;;;4.36;52.35;100578.88;7734071;32;38582;-75
2022/01/28 21:12:24;;;;;;;9.88;3.58;;;;;;;4.27;53.28;100589.09;7735959;32;36869;-75
2022/01/28 21:16:42;;;;;;;9.23;4.37;;;;;;;4.67;52.38;100582.75;7737910;32;40046;-75
2022/01/28 21:20:59;;;;;;;9.63;4.00;;;;;;;4.29;53.91;100586.19;7735911;32;40878;-75
2022/01/28 21:25:15;;;;;;;14.87;3.90;;;;;;;4.41;53.46;100580.97;7735753;32;38198;-75
2022/01/28 21:29:51;;;;;;;10.25;4.75;;;;;;;4.37;53.58;100577.84;7732589;32;36959;-76
2022/01/28 21:34:07;;;;;;;12.68;4.72;;;;;;;4.54;52.67;100585.50;7735805;32;40454;-75
2022/01/28 21:38:24;;;;;;;11.25;4.45;;;;;;;4.05;54.03;100591.22;7733964;32;41223;-75
2022/01/28 21:42:40;;;;;;;11.38;4.20;;;;;;;4.42;52.84;100602.34;7735495;32;37939;-76
2022/01/28 21:46:56;;;;;;;15.60;4.40;;;;;;;4.21;53.00;100618.78;7735674;32;37209;-76
2022/01/28 21:51:12;;;;;;;11.80;4.47;;;;;;;4.13;53.31;100619.84;7735328;32;39255;-75
2022/01/28 21:55:28;;;;;;;7.97;4.15;;;;;;;3.95;53.57;100625.88;7735044;32;40031;-75
2022/01/28 21:59:46;;;;;;;7.35;4.10;;;;;;;4.00;53.04;100620.69;7735082;32;38043;-75